Time;durP1;ratioP1;P1;durP2;ratioP2;P2;SDS_P1;SDS_P2;PMS_P1;PMS_P2;Temp;Humidity;BMP_temperature;BMP_pressure;BME280_temperature;BME280_humidity;BME280_pressure;Samples;Min_cycle;Max_cycle;Signal;HPM_P1;HPM_P2
2023/10/05 00:03:56;;;;;;;15.57;7.30;;;;;;;;;;10264086;28;20081;-69
2023/10/05 00:08:56;;;;;;;11.50;6.70;;;;;;;;;;10271884;28;20071;-69
2023/10/05 00:13:57;;;;;;;13.40;6.65;;;;;;;;;;10271117;28;20077;-67
2023/10/05 00:18:56;;;;;;;13.82;6.20;;;;;;;;;;10270647;28;20072;-69
2023/10/05 00:23:57;;;;;;;14.75;6.65;;;;;;;;;;10270545;28;20959;-69
2023/10/05 00:29:04;;;;;;;12.07;7.60;;;;;;;;;;10272805;28;20072;-68
2023/10/05 00:34:04;;;;;;;11.85;6.40;;;;;;;;;;10274027;28;20103;-68
2023/10/05 00:39:08;;;;;;;9.40;6.07;;;;;;;;;;10267464;28;20087;-68
2023/10/05 00:44:07;;;;;;;13.68;6.82;;;;;;;;;;10284144;28;20088;-68
2023/10/05 00:49:14;;;;;;;12.30;6.18;;;;;;;;;;10270660;28;20045;-68
2023/10/05 00:54:18;;;;;;;14.90;6.30;;;;;;;;;;10271318;28;20069;-68
2023/10/05 00:59:19;;;;;;;22.05;6.65;;;;;;;;;;10278517;28;20099;-68
2023/10/05 01:04:23;;;;;;;19.15;7.13;;;;;;;;;;10278801;28;20073;-68
2023/10/05 01:09:39;;;;;;;18.25;6.95;;;;;;;;;;10282307;28;20077;-68
2023/10/05 01:14:38;;;;;;;15.45;7.07;;;;;;;;;;10274237;28;20095;-68
2023/10/05 01:19:39;;;;;;;15.32;7.18;;;;;;;;;;10277122;28;20104;-68
2023/10/05 01:24:38;;;;;;;14.80;7.03;;;;;;;;;;10277837;28;20060;-68
2023/10/05 01:29:37;;;;;;;15.20;6.75;;;;;;;;;;10276330;28;20073;-68
2023/10/05 01:34:35;;;;;;;17.35;7.07;;;;;;;;;;10276493;28;20087;-67
2023/10/05 01:39:35;;;;;;;16.40;6.90;;;;;;;;;;10277099;28;20065;-68
2023/10/05 01:44:37;;;;;;;13.15;6.15;;;;;;;;;;10282043;28;20073;-68
2023/10/05 01:49:35;;;;;;;14.38;6.20;;;;;;;;;;10275434;28;20084;-68
2023/10/05 01:54:34;;;;;;;16.48;7.18;;;;;;;;;;10276754;28;20080;-67
2023/10/05 01:59:34;;;;;;;12.88;6.78;;;;;;;;;;10278936;28;20540;-68
2023/10/05 02:04:38;;;;;;;14.73;5.82;;;;;;;;;;10276106;28;20049;-68
2023/10/05 02:09:38;;;;;;;14.05;6.55;;;;;;;;;;10273195;28;20083;-68
2023/10/05 02:14:40;;;;;;;14.88;6.45;;;;;;;;;;10276236;28;20511;-68
2023/10/05 02:19:41;;;;;;;12.43;6.05;;;;;;;;;;10293050;28;20083;-69
2023/10/05 02:24:40;;;;;;;14.77;6.78;;;;;;;;;;10273351;28;20076;-67
2023/10/05 02:29:43;;;;;;;9.20;6.32;;;;;;;;;;10273248;28;20073;-67
2023/10/05 02:34:44;;;;;;;15.95;6.00;;;;;;;;;;10276043;28;20493;-68
2023/10/05 02:39:43;;;;;;;10.52;6.70;;;;;;;;;;10272925;28;20083;-67
2023/10/05 02:44:42;;;;;;;10.23;6.68;;;;;;;;;;10274613;28;20065;-67
2023/10/05 02:49:44;;;;;;;15.13;6.47;;;;;;;;;;10276758;28;20077;-67
2023/10/05 02:54:43;;;;;;;22.17;8.32;;;;;;;;;;10285316;28;20083;-67
2023/10/05 02:59:42;;;;;;;13.45;5.53;;;;;;;;;;10273774;28;20087;-68
2023/10/05 03:04:46;;;;;;;15.48;6.78;;;;;;;;;;10285874;28;20518;-68
2023/10/05 03:09:52;;;;;;;13.30;6.90;;;;;;;;;;10288130;28;20092;-68
2023/10/05 03:14:54;;;;;;;11.68;6.47;;;;;;;;;;10272344;28;20107;-68
2023/10/05 03:19:53;;;;;;;15.63;7.68;;;;;;;;;;10271891;28;20077;-68
2023/10/05 03:24:53;;;;;;;18.77;7.57;;;;;;;;;;10270975;28;20136;-68
2023/10/05 03:29:58;;;;;;;16.27;8.18;;;;;;;;;;10270912;28;20044;-68
2023/10/05 03:34:57;;;;;;;23.75;8.77;;;;;;;;;;10269508;28;20076;-68
2023/10/05 03:40:06;;;;;;;20.35;9.52;;;;;;;;;;10277401;28;20076;-68
2023/10/05 03:45:09;;;;;;;15.30;8.27;;;;;;;;;;10272762;28;20482;-68
2023/10/05 03:50:09;;;;;;;15.30;8.73;;;;;;;;;;10268884;28;20080;-68
2023/10/05 03:55:10;;;;;;;18.88;8.55;;;;;;;;;;10271068;28;20457;-68
2023/10/05 04:00:23;;;;;;;20.33;8.77;;;;;;;;;;10271767;28;20084;-68
2023/10/05 04:05:22;;;;;;;20.95;9.10;;;;;;;;;;10274387;28;20083;-67
2023/10/05 04:10:34;;;;;;;9.73;6.63;;;;;;;;;;10267678;28;20072;-68
2023/10/05 04:15:32;;;;;;;11.93;6.88;;;;;;;;;;10260512;28;20076;-67
2023/10/05 04:20:33;;;;;;;14.07;6.35;;;;;;;;;;10267361;28;20479;-70
2023/10/05 04:25:33;;;;;;;15.57;7.57;;;;;;;;;;10268797;28;20068;-67
2023/10/05 04:30:33;;;;;;;13.75;7.75;;;;;;;;;;10266286;28;20064;-69
2023/10/05 04:35:38;;;;;;;14.18;7.88;;;;;;;;;;10261607;28;20072;-68
2023/10/05 04:40:38;;;;;;;14.90;7.38;;;;;;;;;;10268302;28;20574;-68
2023/10/05 04:45:37;;;;;;;14.23;8.43;;;;;;;;;;10265461;28;20076;-68
2023/10/05 04:50:36;;;;;;;16.08;7.10;;;;;;;;;;10263725;28;20088;-68
2023/10/05 04:55:41;;;;;;;22.13;6.95;;;;;;;;;;10269045;28;20073;-68
2023/10/05 05:01:04;;;;;;;18.83;7.78;;;;;;;;;;10267909;28;20084;-68
2023/10/05 05:06:10;;;;;;;15.52;7.38;;;;;;;;;;10268284;28;20073;-69
2023/10/05 05:11:18;;;;;;;24.77;7.85;;;;;;;;;;10269974;28;20072;-69
2023/10/05 05:16:19;;;;;;;15.75;6.70;;;;;;;;;;10249642;28;20080;-70
2023/10/05 05:21:18;;;;;;;19.42;6.93;;;;;;;;;;10267101;28;20064;-70
2023/10/05 05:26:16;;;;;;;17.98;6.55;;;;;;;;;;10259625;28;20073;-75
2023/10/05 05:31:16;;;;;;;13.20;7.63;;;;;;;;;;10260910;28;20072;-67
2023/10/05 05:36:17;;;;;;;14.82;6.93;;;;;;;;;;10264307;28;20077;-67
2023/10/05 05:41:18;;;;;;;21.33;7.18;;;;;;;;;;10269896;28;20075;-68
2023/10/05 05:46:17;;;;;;;17.52;8.23;;;;;;;;;;10270391;28;20056;-71
2023/10/05 05:51:18;;;;;;;17.33;6.65;;;;;;;;;;10272992;28;20068;-70
2023/10/05 05:56:18;;;;;;;11.63;7.28;;;;;;;;;;10271205;28;20468;-61
2023/10/05 06:01:17;;;;;;;16.83;7.72;;;;;;;;;;10271607;28;20077;-61
2023/10/05 06:06:16;;;;;;;15.05;7.50;;;;;;;;;;10266869;28;20060;-61
2023/10/05 06:11:16;;;;;;;15.48;8.10;;;;;;;;;;10273237;28;20061;-61
2023/10/05 06:16:14;;;;;;;16.10;7.38;;;;;;;;;;10262793;28;20107;-60
2023/10/05 06:21:13;;;;;;;22.20;8.68;;;;;;;;;;10250034;28;20175;-60
2023/10/05 06:26:11;;;;;;;20.23;8.05;;;;;;;;;;10253482;28;20394;-60
2023/10/05 06:31:12;;;;;;;15.45;7.80;;;;;;;;;;10267338;28;20057;-60
2023/10/05 06:36:11;;;;;;;19.58;7.78;;;;;;;;;;10274768;28;20549;-60
2023/10/05 06:41:11;;;;;;;23.90;8.93;;;;;;;;;;10266325;28;20083;-60
2023/10/05 06:46:17;;;;;;;19.60;7.35;;;;;;;;;;10263205;28;20073;-60
2023/10/05 06:51:25;;;;;;;12.43;6.72;;;;;;;;;;10264553;28;20076;-59
2023/10/05 06:56:23;;;;;;;23.30;7.63;;;;;;;;;;10265727;28;20069;-60
2023/10/05 07:01:21;;;;;;;18.52;7.35;;;;;;;;;;10270341;28;20079;-59
2023/10/05 07:06:22;;;;;;;18.98;6.97;;;;;;;;;;10262888;28;20091;-60
2023/10/05 07:11:22;;;;;;;22.17;6.80;;;;;;;;;;10273073;28;20060;-61
2023/10/05 07:16:20;;;;;;;29.50;9.98;;;;;;;;;;10271300;28;20075;-60
2023/10/05 07:21:18;;;;;;;16.05;7.25;;;;;;;;;;10275659;28;20068;-60
2023/10/05 07:26:16;;;;;;;13.70;6.18;;;;;;;;;;10262363;28;20064;-61
2023/10/05 07:31:16;;;;;;;16.20;6.78;;;;;;;;;;10272173;28;20739;-60
2023/10/05 07:36:14;;;;;;;13.23;6.55;;;;;;;;;;10270048;28;20079;-60
2023/10/05 07:41:13;;;;;;;13.65;7.10;;;;;;;;;;10272157;28;20182;-61
2023/10/05 07:46:11;;;;;;;22.23;7.40;;;;;;;;;;10269637;28;20068;-61
2023/10/05 07:51:14;;;;;;;16.40;6.25;;;;;;;;;;10271349;28;20072;-60
2023/10/05 07:56:13;;;;;;;28.80;6.75;;;;;;;;;;10273471;28;20073;-61
2023/10/05 08:01:11;;;;;;;14.65;6.60;;;;;;;;;;10263048;28;20072;-60
2023/10/05 08:06:14;;;;;;;23.15;7.03;;;;;;;;;;10270678;28;20064;-61
2023/10/05 08:11:13;;;;;;;17.40;7.03;;;;;;;;;;10270905;28;20060;-61
2023/10/05 08:16:13;;;;;;;17.42;6.13;;;;;;;;;;10272281;28;21320;-62
2023/10/05 08:21:13;;;;;;;24.38;7.70;;;;;;;;;;10266246;28;20079;-61
2023/10/05 08:26:12;;;;;;;36.22;9.35;;;;;;;;;;10269735;28;20079;-60
2023/10/05 08:31:11;;;;;;;16.13;7.55;;;;;;;;;;10268700;28;20074;-62
2023/10/05 08:36:12;;;;;;;15.40;6.13;;;;;;;;;;10262363;28;20060;-61
2023/10/05 08:41:15;;;;;;;59.60;12.18;;;;;;;;;;10283632;28;20073;-60
2023/10/05 08:46:14;;;;;;;19.15;6.80;;;;;;;;;;10271571;28;20506;-61
2023/10/05 08:51:13;;;;;;;21.48;6.43;;;;;;;;;;10270139;28;20079;-61
2023/10/05 08:56:15;;;;;;;12.80;6.07;;;;;;;;;;10267165;28;20072;-61
2023/10/05 09:01:31;;;;;;;27.73;7.50;;;;;;;;;;10266421;28;20068;-60
2023/10/05 09:06:59;;;;;;;23.52;7.20;;;;;;;;;;10266482;28;20092;-61
2023/10/05 09:11:57;;;;;;;14.05;6.28;;;;;;;;;;10272372;28;20081;-60
2023/10/05 09:17:08;;;;;;;23.90;7.10;;;;;;;;;;10273301;28;20100;-62
2023/10/05 09:22:12;;;;;;;17.10;6.70;;;;;;;;;;10276077;28;20505;-59
2023/10/05 09:27:12;;;;;;;22.10;6.88;;;;;;;;;;10276457;28;20076;-60
2023/10/05 09:32:22;;;;;;;16.42;6.50;;;;;;;;;;10278604;28;20072;-60
2023/10/05 09:37:24;;;;;;;20.88;5.72;;;;;;;;;;10276619;28;20083;-60
2023/10/05 09:42:25;;;;;;;16.70;6.55;;;;;;;;;;10277872;28;20479;-60
2023/10/05 09:47:25;;;;;;;23.88;7.18;;;;;;;;;;10275626;28;20088;-60
2023/10/05 09:52:34;;;;;;;11.45;7.07;;;;;;;;;;10276374;28;20456;-60
2023/10/05 09:57:40;;;;;;;22.08;7.35;;;;;;;;;;10277452;28;20096;-61
2023/10/05 10:02:40;;;;;;;28.08;6.00;;;;;;;;;;10270413;28;20072;-61
2023/10/05 10:07:40;;;;;;;20.13;7.13;;;;;;;;;;10273450;28;20498;-61
2023/10/05 10:12:39;;;;;;;13.65;6.15;;;;;;;;;;10270461;28;20525;-61
2023/10/05 10:17:37;;;;;;;20.50;5.78;;;;;;;;;;10265406;28;20080;-60
2023/10/05 10:22:53;;;;;;;24.35;6.70;;;;;;;;;;10274835;28;20083;-60
2023/10/05 10:28:14;;;;;;;12.38;5.80;;;;;;;;;;10266171;28;20092;-60
2023/10/05 10:33:24;;;;;;;13.75;5.88;;;;;;;;;;10274502;28;20069;-59
2023/10/05 10:38:24;;;;;;;18.40;6.55;;;;;;;;;;10273348;28;20065;-59
2023/10/05 10:43:30;;;;;;;13.15;5.30;;;;;;;;;;10274976;28;20076;-60
2023/10/05 10:48:36;;;;;;;9.20;6.55;;;;;;;;;;10268863;28;20083;-60
2023/10/05 10:53:37;;;;;;;15.25;5.50;;;;;;;;;;10277197;28;20489;-60
2023/10/05 10:58:37;;;;;;;14.23;6.65;;;;;;;;;;10270143;28;20077;-60
2023/10/05 11:03:36;;;;;;;28.45;5.82;;;;;;;;;;10276465;28;20067;-61
2023/10/05 11:08:40;;;;;;;13.98;5.90;;;;;;;;;;10259982;28;20503;-62
2023/10/05 11:13:45;;;;;;;16.20;6.18;;;;;;;;;;10266562;28;20111;-62
2023/10/05 11:18:43;;;;;;;;;;;;;;;;;;10269227;28;20077;-61
2023/10/05 11:23:45;;;;;;;10.73;6.25;;;;;;;;;;10267813;28;19964;-61
2023/10/05 11:28:46;;;;;;;15.10;5.35;;;;;;;;;;10272276;28;20482;-59
2023/10/05 11:33:49;;;;;;;11.88;5.78;;;;;;;;;;10273292;28;20068;-61
2023/10/05 11:39:08;;;;;;;8.68;4.97;;;;;;;;;;10271042;28;20466;-60
2023/10/05 11:44:12;;;;;;;17.17;5.00;;;;;;;;;;10273465;28;20072;-61
2023/10/05 11:49:10;;;;;;;14.35;6.47;;;;;;;;;;10275820;28;20501;-61
2023/10/05 11:54:24;;;;;;;13.38;5.50;;;;;;;;;;10271580;28;20057;-61
2023/10/05 11:59:27;;;;;;;9.82;5.20;;;;;;;;;;10272675;28;20088;-61
2023/10/05 12:04:26;;;;;;;12.95;5.55;;;;;;;;;;10271288;28;20076;-61
2023/10/05 12:09:30;;;;;;;13.82;5.63;;;;;;;;;;10272028;28;20095;-61
2023/10/05 12:14:30;;;;;;;12.63;5.85;;;;;;;;;;10273521;28;20072;-62
2023/10/05 12:19:29;;;;;;;21.88;5.93;;;;;;;;;;10273544;28;20068;-61
2023/10/05 12:24:30;;;;;;;9.07;5.88;;;;;;;;;;10273195;28;20037;-61
2023/10/05 12:29:30;;;;;;;7.18;4.80;;;;;;;;;;10270597;28;20510;-60
2023/10/05 12:34:28;;;;;;;6.50;5.13;;;;;;;;;;10274059;28;20096;-61
2023/10/05 12:39:27;;;;;;;19.05;6.13;;;;;;;;;;10272348;28;20080;-61
2023/10/05 12:44:27;;;;;;;16.42;5.35;;;;;;;;;;10269741;28;20096;-61
2023/10/05 12:49:27;;;;;;;13.70;5.75;;;;;;;;;;10272724;28;20091;-61
2023/10/05 12:54:29;;;;;;;10.80;5.20;;;;;;;;;;10279640;28;20072;-61
2023/10/05 12:59:28;;;;;;;8.70;5.95;;;;;;;;;;10280017;28;20072;-61
2023/10/05 13:04:28;;;;;;;14.68;5.28;;;;;;;;;;10279177;28;20072;-60
2023/10/05 13:09:28;;;;;;;12.38;5.93;;;;;;;;;;10278931;28;20529;-61
2023/10/05 13:14:26;;;;;;;9.65;5.60;;;;;;;;;;10277664;28;20095;-61
2023/10/05 13:19:25;;;;;;;12.35;6.82;;;;;;;;;;10277505;28;20064;-62
2023/10/05 13:24:24;;;;;;;12.65;5.20;;;;;;;;;;10279273;28;20061;-61
2023/10/05 13:29:25;;;;;;;13.75;5.82;;;;;;;;;;10278383;28;20064;-62
2023/10/05 13:34:27;;;;;;;14.18;5.15;;;;;;;;;;10276743;28;20077;-62
2023/10/05 13:39:28;;;;;;;8.20;5.50;;;;;;;;;;10280673;28;20064;-62
2023/10/05 13:44:27;;;;;;;12.80;5.22;;;;;;;;;;10275205;28;20552;-61
2023/10/05 13:49:29;;;;;;;8.93;5.05;;;;;;;;;;10275928;28;20075;-61
2023/10/05 13:54:29;;;;;;;16.10;5.80;;;;;;;;;;10277443;28;20463;-61
2023/10/05 13:59:28;;;;;;;11.60;5.05;;;;;;;;;;10275519;28;20081;-61
2023/10/05 14:04:30;;;;;;;12.05;5.30;;;;;;;;;;10278660;28;20073;-60
2023/10/05 14:09:32;;;;;;;11.93;5.65;;;;;;;;;;10277144;28;20072;-61
2023/10/05 14:14:31;;;;;;;16.30;5.30;;;;;;;;;;10276786;28;20076;-61
2023/10/05 14:19:30;;;;;;;14.73;6.63;;;;;;;;;;10276200;28;20083;-60
2023/10/05 14:24:32;;;;;;;17.10;5.13;;;;;;;;;;10260142;28;20059;-61
2023/10/05 14:29:36;;;;;;;15.57;5.88;;;;;;;;;;10262211;28;20068;-62
2023/10/05 14:34:35;;;;;;;10.05;5.00;;;;;;;;;;10271107;28;20742;-62
2023/10/05 14:39:36;;;;;;;19.80;6.72;;;;;;;;;;10261494;28;20077;-61
2023/10/05 14:44:36;;;;;;;19.17;4.80;;;;;;;;;;10266678;28;20088;-62
2023/10/05 14:49:35;;;;;;;14.85;5.70;;;;;;;;;;10272307;28;20473;-61
2023/10/05 14:54:34;;;;;;;12.90;5.97;;;;;;;;;;10262558;28;20068;-61
2023/10/05 14:59:33;;;;;;;12.50;6.57;;;;;;;;;;10265799;28;20083;-62
2023/10/05 15:04:31;;;;;;;13.85;5.03;;;;;;;;;;10271864;28;20060;-62
2023/10/05 15:09:34;;;;;;;12.48;5.32;;;;;;;;;;10272204;28;20067;-61
2023/10/05 15:14:34;;;;;;;17.05;6.35;;;;;;;;;;10274175;28;20087;-60
2023/10/05 15:19:32;;;;;;;10.00;5.95;;;;;;;;;;10271922;28;20080;-61
2023/10/05 15:24:31;;;;;;;19.38;6.35;;;;;;;;;;10259592;28;20133;-61
2023/10/05 15:29:29;;;;;;;19.15;6.20;;;;;;;;;;10268803;28;20101;-60
2023/10/05 15:34:29;;;;;;;22.85;6.45;;;;;;;;;;10266811;28;20075;-60
2023/10/05 15:39:27;;;;;;;16.02;7.25;;;;;;;;;;10269455;28;20068;-61
2023/10/05 15:44:25;;;;;;;26.13;11.05;;;;;;;;;;10266778;28;20084;-60
2023/10/05 15:49:24;;;;;;;13.65;7.70;;;;;;;;;;10266210;28;20072;-61
2023/10/05 15:54:23;;;;;;;18.70;6.20;;;;;;;;;;10267734;28;20115;-61
2023/10/05 15:59:22;;;;;;;13.50;6.63;;;;;;;;;;10269714;28;20065;-61
2023/10/05 16:04:20;;;;;;;17.75;6.90;;;;;;;;;;10265982;28;20068;-60
2023/10/05 16:09:20;;;;;;;16.30;5.93;;;;;;;;;;10269925;28;20091;-62
2023/10/05 16:14:19;;;;;;;45.58;32.15;;;;;;;;;;10268451;28;20084;-61
2023/10/05 16:19:17;;;;;;;19.30;6.80;;;;;;;;;;10273512;28;20068;-61
2023/10/05 16:24:16;;;;;;;26.00;7.68;;;;;;;;;;10268337;28;20064;-61
2023/10/05 16:29:15;;;;;;;21.63;6.03;;;;;;;;;;10270593;28;20103;-62
2023/10/05 16:34:15;;;;;;;21.27;5.97;;;;;;;;;;10270306;28;20073;-63
2023/10/05 16:39:14;;;;;;;17.83;7.35;;;;;;;;;;10268723;28;20080;-60
2023/10/05 16:44:13;;;;;;;22.30;5.80;;;;;;;;;;10256454;28;20476;-60
2023/10/05 16:49:15;;;;;;;15.02;5.45;;;;;;;;;;10228190;28;20141;-59
2023/10/05 16:54:16;;;;;;;17.23;6.82;;;;;;;;;;10268294;28;20064;-60
2023/10/05 16:59:14;;;;;;;18.40;5.93;;;;;;;;;;10271858;28;20064;-61
2023/10/05 17:04:13;;;;;;;14.18;5.68;;;;;;;;;;10266762;28;20069;-61
2023/10/05 17:09:11;;;;;;;13.57;5.50;;;;;;;;;;10268713;28;20073;-60
2023/10/05 17:14:11;;;;;;;13.35;5.55;;;;;;;;;;10269065;28;20099;-60
2023/10/05 17:19:11;;;;;;;14.73;5.70;;;;;;;;;;10271547;28;20073;-60
2023/10/05 17:24:10;;;;;;;16.08;5.68;;;;;;;;;;10269679;28;20072;-61
2023/10/05 17:29:20;;;;;;;13.07;6.03;;;;;;;;;;10269151;28;20511;-60
2023/10/05 17:34:18;;;;;;;11.25;5.68;;;;;;;;;;10269641;28;20056;-60
2023/10/05 17:39:18;;;;;;;13.68;6.30;;;;;;;;;;10276645;28;20065;-60
2023/10/05 17:44:16;;;;;;;19.50;6.38;;;;;;;;;;10277303;28;20068;-61
2023/10/05 17:49:16;;;;;;;18.50;5.50;;;;;;;;;;10271987;28;20091;-61
2023/10/05 17:54:14;;;;;;;16.90;6.70;;;;;;;;;;10270012;28;20072;-61
2023/10/05 17:59:13;;;;;;;16.55;8.00;;;;;;;;;;10273145;28;20072;-60
2023/10/05 18:04:11;;;;;;;15.13;6.18;;;;;;;;;;10271041;28;20080;-61
2023/10/05 18:09:11;;;;;;;19.75;7.05;;;;;;;;;;10272252;28;20076;-61
2023/10/05 18:14:12;;;;;;;15.18;5.60;;;;;;;;;;10277278;28;20087;-61
2023/10/05 18:19:14;;;;;;;12.43;5.63;;;;;;;;;;10263054;28;20485;-60
2023/10/05 18:24:17;;;;;;;10.98;6.65;;;;;;;;;;10263698;28;20502;-61
2023/10/05 18:29:16;;;;;;;14.45;6.18;;;;;;;;;;10271763;28;20080;-60
2023/10/05 18:34:14;;;;;;;16.85;8.32;;;;;;;;;;10269799;28;20071;-60
2023/10/05 18:39:15;;;;;;;12.55;8.05;;;;;;;;;;10271110;28;20083;-61
2023/10/05 18:44:15;;;;;;;13.93;7.13;;;;;;;;;;10269044;28;20130;-61
2023/10/05 18:49:13;;;;;;;10.25;6.80;;;;;;;;;;10268342;28;20080;-61
2023/10/05 18:54:13;;;;;;;16.85;7.13;;;;;;;;;;10270515;28;20533;-58
2023/10/05 18:59:11;;;;;;;11.25;6.82;;;;;;;;;;10272268;28;20064;-62
2023/10/05 19:04:11;;;;;;;13.40;6.97;;;;;;;;;;10266204;28;20076;-61
2023/10/05 19:09:11;;;;;;;14.05;6.50;;;;;;;;;;10274555;28;20072;-60
2023/10/05 19:14:09;;;;;;;12.50;6.53;;;;;;;;;;10269495;28;20080;-61
2023/10/05 19:19:07;;;;;;;8.93;6.10;;;;;;;;;;10269497;28;20068;-61
2023/10/05 19:24:08;;;;;;;7.18;5.35;;;;;;;;;;10272790;28;20081;-61
2023/10/05 19:29:06;;;;;;;10.80;6.13;;;;;;;;;;10270783;28;20079;-61
2023/10/05 19:34:05;;;;;;;10.55;5.25;;;;;;;;;;10271171;28;20080;-61
2023/10/05 19:39:10;;;;;;;9.10;5.25;;;;;;;;;;10272993;28;20073;-60
2023/10/05 19:44:10;;;;;;;10.18;6.25;;;;;;;;;;10270250;28;20118;-60
2023/10/05 19:49:08;;;;;;;11.27;5.70;;;;;;;;;;10271430;28;20064;-61
2023/10/05 19:54:08;;;;;;;10.82;6.35;;;;;;;;;;10269316;28;20068;-61
2023/10/05 19:59:13;;;;;;;9.73;5.70;;;;;;;;;;10270628;28;20079;-61
2023/10/05 20:04:11;;;;;;;13.73;6.65;;;;;;;;;;10268478;28;20076;-60
2023/10/05 20:09:13;;;;;;;9.68;6.70;;;;;;;;;;10272079;28;20065;-60
2023/10/05 20:14:13;;;;;;;10.65;6.00;;;;;;;;;;10272339;28;20077;-59
2023/10/05 20:19:12;;;;;;;10.23;5.78;;;;;;;;;;10273692;28;20120;-61
2023/10/05 20:24:10;;;;;;;11.95;6.22;;;;;;;;;;10270448;28;21039;-62
2023/10/05 20:29:08;;;;;;;11.48;5.80;;;;;;;;;;10269177;28;20068;-60
2023/10/05 20:34:08;;;;;;;14.55;6.03;;;;;;;;;;10269335;28;20065;-60
2023/10/05 20:39:08;;;;;;;11.48;6.50;;;;;;;;;;10265383;28;20069;-61
2023/10/05 20:44:07;;;;;;;11.82;6.20;;;;;;;;;;10268775;28;20072;-60
2023/10/05 20:49:06;;;;;;;15.23;5.40;;;;;;;;;;10268421;28;20077;-60
2023/10/05 20:54:06;;;;;;;12.45;6.78;;;;;;;;;;10267635;28;20498;-59
2023/10/05 20:59:04;;;;;;;10.68;6.00;;;;;;;;;;10270497;28;20088;-60
2023/10/05 21:04:04;;;;;;;9.25;6.85;;;;;;;;;;10268018;28;20076;-61
2023/10/05 21:09:04;;;;;;;12.98;6.35;;;;;;;;;;10273612;28;20080;-59
2023/10/05 21:14:03;;;;;;;14.57;5.97;;;;;;;;;;10277005;28;20072;-60
2023/10/05 21:19:02;;;;;;;11.10;5.78;;;;;;;;;;10276874;28;20085;-60
2023/10/05 21:24:00;;;;;;;8.65;6.15;;;;;;;;;;10285574;28;20075;-61
2023/10/05 21:28:59;;;;;;;10.73;6.18;;;;;;;;;;10279888;28;20091;-60
2023/10/05 21:33:59;;;;;;;10.85;5.60;;;;;;;;;;10277095;28;20072;-61
2023/10/05 21:38:58;;;;;;;13.43;6.22;;;;;;;;;;10276839;28;20064;-60
2023/10/05 21:43:56;;;;;;;9.98;6.15;;;;;;;;;;10279226;28;20087;-61
2023/10/05 21:48:55;;;;;;;9.32;5.53;;;;;;;;;;10277054;28;20071;-61
2023/10/05 21:53:55;;;;;;;9.80;5.65;;;;;;;;;;10278201;28;20069;-59
2023/10/05 21:58:53;;;;;;;9.65;5.88;;;;;;;;;;10277811;28;20087;-60
2023/10/05 22:03:52;;;;;;;14.48;6.32;;;;;;;;;;10277655;28;20081;-61
2023/10/05 22:08:52;;;;;;;11.90;6.18;;;;;;;;;;10275667;28;20077;-61
2023/10/05 22:13:52;;;;;;;11.57;6.07;;;;;;;;;;10277824;28;20085;-60
2023/10/05 22:18:51;;;;;;;10.50;6.10;;;;;;;;;;10274461;28;20080;-60
2023/10/05 22:23:51;;;;;;;15.02;7.03;;;;;;;;;;10275245;28;20115;-60
2023/10/05 22:28:49;;;;;;;15.20;6.43;;;;;;;;;;10273760;28;20486;-61
2023/10/05 22:33:49;;;;;;;9.23;6.72;;;;;;;;;;10275804;28;20064;-61
2023/10/05 22:38:47;;;;;;;10.38;6.70;;;;;;;;;;10275446;28;20474;-61
2023/10/05 22:43:45;;;;;;;13.05;6.30;;;;;;;;;;10274107;28;20581;-61
2023/10/05 22:48:44;;;;;;;13.13;6.80;;;;;;;;;;10268178;28;20103;-60
2023/10/05 22:53:43;;;;;;;8.45;6.68;;;;;;;;;;10273242;28;20080;-60
2023/10/05 22:58:41;;;;;;;9.15;5.82;;;;;;;;;;10271901;28;20102;-61
2023/10/05 23:03:40;;;;;;;12.10;6.35;;;;;;;;;;10273581;28;20080;-60
2023/10/05 23:08:38;;;;;;;12.77;7.32;;;;;;;;;;10273971;28;20064;-60
2023/10/05 23:13:41;;;;;;;10.70;6.20;;;;;;;;;;10271937;28;20639;-60
2023/10/05 23:18:40;;;;;;;11.57;6.10;;;;;;;;;;10273762;28;20080;-60
2023/10/05 23:23:38;;;;;;;11.05;6.63;;;;;;;;;;10273216;28;20099;-60
2023/10/05 23:28:38;;;;;;;11.65;6.13;;;;;;;;;;10278308;28;20520;-60
2023/10/05 23:33:36;;;;;;;10.82;6.32;;;;;;;;;;10271387;28;20076;-61
2023/10/05 23:38:39;;;;;;;13.98;5.93;;;;;;;;;;10275664;28;20076;-61
2023/10/05 23:43:39;;;;;;;10.32;6.43;;;;;;;;;;10271179;28;20076;-61
2023/10/05 23:48:39;;;;;;;11.27;7.35;;;;;;;;;;10273551;28;20072;-61
2023/10/05 23:53:37;;;;;;;11.93;6.22;;;;;;;;;;10277208;28;20071;-61
2023/10/05 23:58:35;;;;;;;7.22;6.30;;;;;;;;;;10272145;28;20123;-61
